Time;durP1;ratioP1;P1;durP2;ratioP2;P2;SDS_P1;SDS_P2;PMS_P1;PMS_P2;Temp;Humidity;BMP_temperature;BMP_pressure;BME280_temperature;BME280_humidity;BME280_pressure;Samples;Min_cycle;Max_cycle;Signal;HPM_P1;HPM_P2
2022/12/23 00:00:18;;;;;;;82.50;38.00;;;7.60;99.90;;;;;;5056386;28;20297;-78
2022/12/23 00:02:44;;;;;;;104.87;41.03;;;7.60;99.90;;;;;;5073800;28;20289;-78
2022/12/23 00:05:11;;;;;;;87.67;38.63;;;7.60;99.90;;;;;;5073713;28;20283;-79
2022/12/23 00:07:37;;;;;;;93.27;39.63;;;7.60;99.90;;;;;;5073734;28;20484;-78
2022/12/23 00:10:03;;;;;;;93.03;39.43;;;7.60;99.90;;;;;;5056781;28;20287;-80
2022/12/23 00:15:14;;;;;;;113.73;42.70;;;7.60;99.90;;;;;;5074142;28;20279;-79
2022/12/23 00:17:44;;;;;;;96.13;37.93;;;7.60;99.90;;;;;;5073865;28;20623;-79
2022/12/23 00:20:14;;;;;;;80.33;37.83;;;7.60;99.90;;;;;;5073506;28;20051;-79
2022/12/23 00:25:40;;;;;;;78.30;36.55;;;7.60;99.90;;;;;;5073505;28;20279;-79
2022/12/23 00:28:21;;;;;;;81.00;37.40;;;7.60;99.90;;;;;;5073782;28;20048;-80
2022/12/23 00:30:52;;;;;;;90.07;37.07;;;7.60;99.90;;;;;;5073479;28;20283;-79
2022/12/23 00:33:23;;;;;;;94.50;38.00;;;7.60;99.90;;;;;;5056083;28;20294;-80
2022/12/23 00:35:50;;;;;;;82.27;35.07;;;7.60;99.90;;;;;;5073422;28;20290;-80
2022/12/23 00:42:52;;;;;;;83.60;37.30;;;7.60;99.90;;;;;;5073283;28;20347;-80
2022/12/23 00:43:48;;;;;;;73.80;34.37;;;7.70;99.90;;;;;;5073218;28;20741;-79
2022/12/23 00:46:14;;;;;;;79.33;36.20;;;7.70;99.90;;;;;;5073872;28;20090;-80
2022/12/23 00:51:24;;;;;;;82.97;37.33;;;7.70;99.90;;;;;;5058192;28;20118;-79
2022/12/23 00:53:49;;;;;;;86.23;38.20;;;7.70;99.90;;;;;;5039425;28;20346;-79
2022/12/23 00:56:15;;;;;;;101.47;40.47;;;7.60;99.90;;;;;;5073453;28;20055;-79
2022/12/23 00:58:41;;;;;;;92.97;38.00;;;7.60;99.90;;;;;;5073145;28;20530;-79
2022/12/23 01:06:35;;;;;;;86.97;37.90;;;7.50;99.90;;;;;;5073058;28;20279;-80
2022/12/23 01:09:01;;;;;;;86.20;38.53;;;7.50;99.90;;;;;;5073092;28;20275;-80
2022/12/23 01:11:27;;;;;;;90.23;37.73;;;;;;;;;;5073010;28;20067;-80
2022/12/23 01:13:52;;;;;;;80.93;36.83;;;7.60;99.90;;;;;;5072990;28;20115;-80
2022/12/23 01:16:18;;;;;;;106.53;38.33;;;;;;;;;;5055259;28;20321;-80
2022/12/23 01:18:45;;;;;;;82.83;36.70;;;;;;;;;;5055713;28;20396;-79
2022/12/23 01:21:11;;;;;;;98.23;37.53;;;;;;;;;;5073080;28;20274;-79
2022/12/23 01:23:37;;;;;;;96.77;36.40;;;;;;;;;;5057033;28;20287;-79
2022/12/23 01:26:04;;;;;;;88.80;37.43;;;;;;;;;;5076750;28;20314;-79
2022/12/23 01:28:31;;;;;;;91.73;36.63;;;;;;;;;;5076745;28;20274;-79
2022/12/23 01:30:59;;;;;;;93.53;35.77;;;;;;;;;;5076663;28;20278;-79
2022/12/23 01:33:25;;;;;;;87.23;34.53;;;7.50;99.90;;;;;;5041838;28;20663;-79
2022/12/23 01:35:51;;;;;;;87.03;34.93;;;7.70;99.90;;;;;;5059042;28;20325;-79
2022/12/23 01:38:16;;;;;;;90.17;35.57;;;7.60;99.90;;;;;;5076481;28;20322;-79
2022/12/23 01:40:44;;;;;;;78.40;34.13;;;7.80;99.90;;;;;;5058866;28;20480;-79
2022/12/23 01:43:17;;;;;;;84.57;33.23;;;;;;;;;;5076371;28;20094;-80
2022/12/23 01:45:43;;;;;;;80.17;34.13;;;7.80;99.90;;;;;;5075962;28;20290;-79
2022/12/23 01:48:20;;;;;;;87.27;33.83;;;7.80;99.90;;;;;;5059399;28;20276;-79
2022/12/23 01:51:17;;;;;;;100.77;36.10;;;7.70;99.90;;;;;;5059600;28;20036;-79
2022/12/23 01:53:46;;;;;;;94.60;36.03;;;7.70;99.90;;;;;;5056698;28;20314;-79
2022/12/23 01:56:34;;;;;;;108.23;37.90;;;7.70;99.90;;;;;;5076226;28;20281;-79
2022/12/23 01:59:04;;;;;;;80.23;34.33;;;7.70;99.90;;;;;;5075210;28;20283;-79
2022/12/23 02:04:19;;;;;;;90.83;35.90;;;;;;;;;;5076572;28;20275;-79
2022/12/23 02:09:39;;;;;;;102.50;37.73;;;7.70;99.90;;;;;;5076505;28;20357;-80
2022/12/23 02:12:20;;;;;;;100.53;38.07;;;7.70;99.90;;;;;;5075658;28;20282;-79
2022/12/23 02:18:04;;;;;;;112.23;39.57;;;;;;;;;;5076658;28;20279;-80
2022/12/23 02:20:54;;;;;;;119.90;41.40;;;;;;;;;;5058036;28;20326;-80
2022/12/23 02:23:37;;;;;;;99.37;36.90;;;;;;;;;;5062781;28;20290;-80
2022/12/23 02:26:16;;;;;;;114.03;39.43;;;;;;;;;;5057912;28;20362;-80
2022/12/23 02:28:54;;;;;;;102.80;39.33;;;;;;;;;;5075658;28;20283;-80
2022/12/23 02:31:28;;;;;;;102.57;40.77;;;;;;;;;;5075505;28;20317;-80
2022/12/23 02:33:55;;;;;;;111.40;37.08;;;;;;;;;;5076049;28;20417;-80
2022/12/23 02:36:38;;;;;;;103.13;35.47;;;;;;;;;;5056371;28;20512;-80
2022/12/23 02:39:18;;;;;;;101.40;36.30;;;;;;;;;;5058078;28;20824;-80
2022/12/23 02:41:53;;;;;;;101.30;37.00;;;;;;;;;;5075964;28;20287;-80
2022/12/23 02:44:28;;;;;;;100.17;34.77;;;;;;;;;;5058137;28;20291;-80
2022/12/23 02:46:54;;;;;;;;;;;;;;;;;;5075688;28;20767;-80
2022/12/23 02:49:26;;;;;;;117.93;35.30;;;;;;;;;;5074128;28;19920;-80
2022/12/23 02:51:54;;;;;;;128.80;37.80;;;;;;;;;;5058276;28;20290;-80
2022/12/23 02:54:24;;;;;;;120.27;35.23;;;;;;;;;;5057444;28;20294;-80
2022/12/23 02:56:52;;;;;;;84.80;31.40;;;;;;;;;;5041153;28;20297;-80
2022/12/23 02:59:26;;;;;;;111.40;34.40;;;;;;;;;;5074929;28;20283;-80
2022/12/23 03:01:53;;;;;;;86.88;31.42;;;;;;;;;;5075460;28;20279;-80
2022/12/23 03:04:19;;;;;;;103.40;33.07;;;;;;;;;;5057154;28;20087;-80
2022/12/23 03:06:48;;;;;;;102.50;33.03;;;;;;;;;;5074847;28;20307;-80
2022/12/23 03:09:21;;;;;;;102.20;32.63;;;;;;;;;;5040759;28;20429;-80
2022/12/23 03:11:58;;;;;;;91.87;32.77;;;;;;;;;;5075006;28;20306;-80
2022/12/23 03:14:33;;;;;;;107.10;33.33;;;;;;;;;;5057375;28;20378;-80
2022/12/23 03:17:18;;;;;;;86.05;30.83;;;;;;;;;;5074623;28;20290;-80
2022/12/23 03:19:50;;;;;;;89.22;31.48;;;;;;;;;;5074614;28;20044;-80
2022/12/23 03:22:23;;;;;;;87.60;31.13;;;;;;;;;;5074456;28;20120;-80
2022/12/23 03:24:54;;;;;;;95.40;34.50;;;;;;;;;;5074825;28;20287;-80
2022/12/23 03:27:27;;;;;;;91.53;32.70;;;;;;;;;;5074998;28;20308;-80
2022/12/23 03:29:56;;;;;;;113.30;36.27;;;;;;;;;;5074372;28;20322;-80
2022/12/23 03:32:24;;;;;;;93.27;33.33;;;;;;;;;;5074413;28;20299;-80
2022/12/23 03:34:51;;;;;;;96.40;33.97;;;;;;;;;;5074173;28;20318;-80
2022/12/23 03:37:19;;;;;;;93.80;33.80;;;;;;;;;;5074126;28;20282;-79
2022/12/23 03:39:52;;;;;;;163.10;37.90;;;;;;;;;;5074097;28;20420;-80
2022/12/23 03:42:28;;;;;;;110.20;35.97;;;;;;;;;;5074710;28;20648;-80
2022/12/23 03:44:55;;;;;;;105.77;34.23;;;;;;;;;;5073856;28;20322;-80
2022/12/23 03:47:27;;;;;;;99.90;33.27;;;;;;;;;;5057017;28;20731;-80
2022/12/23 03:49:54;;;;;;;108.27;33.63;;;;;;;;;;5056442;28;20290;-80
2022/12/23 03:52:23;;;;;;;117.40;35.47;;;;;;;;;;5074256;28;20295;-80
2022/12/23 03:54:52;;;;;;;97.27;32.80;;;;;;;;;;5074346;28;20358;-80
2022/12/23 03:57:19;;;;;;;111.83;34.10;;;;;;;;;;5056891;28;20322;-80
2022/12/23 03:59:49;;;;;;;100.00;32.80;;;;;;;;;;5074251;28;20315;-80
2022/12/23 04:02:15;;;;;;;101.47;32.63;;;;;;;;;;5073672;28;20325;-79
2022/12/23 04:04:44;;;;;;;93.50;30.97;;;;;;;;;;5073702;28;20290;-79
2022/12/23 04:07:13;;;;;;;92.17;31.30;;;;;;;;;;5056853;28;20323;-79
2022/12/23 04:09:39;;;;;;;108.60;33.50;;;;;;;;;;5073898;28;20623;-79
2022/12/23 04:12:06;;;;;;;93.87;30.67;;;;;;;;;;5073614;28;20275;-79
2022/12/23 04:14:33;;;;;;;87.33;31.27;;;;;;;;;;5074167;28;20271;-79
2022/12/23 04:17:00;;;;;;;92.43;31.27;;;;;;;;;;5056016;28;20366;-79
2022/12/23 04:19:26;;;;;;;94.13;31.47;;;;;;;;;;5073537;28;20357;-79
2022/12/23 04:21:56;;;;;;;84.17;30.17;;;;;;;;;;5073509;28;20314;-79
2022/12/23 04:24:22;;;;;;;101.10;33.23;;;;;;;;;;5073609;28;20281;-79
2022/12/23 04:26:48;;;;;;;71.40;31.20;;;;;;;;;;5055883;28;20796;-79
2022/12/23 04:29:14;;;;;;;103.83;34.90;;;;;;;;;;5073496;28;20335;-79
2022/12/23 04:31:40;;;;;;;97.93;34.23;;;;;;;;;;5073723;28;20335;-79
2022/12/23 04:34:06;;;;;;;70.80;29.30;;;;;;;;;;5073522;28;20827;-79
2022/12/23 04:36:33;;;;;;;69.30;29.50;;;;;;;;;;5056315;28;20622;-79
2022/12/23 04:38:59;;;;;;;87.17;29.60;;;;;;;;;;5073359;28;20283;-79
2022/12/23 04:41:25;;;;;;;78.77;28.63;;;;;;;;;;5055465;28;20382;-79
2022/12/23 04:43:51;;;;;;;90.57;30.77;;;;;;;;;;5073123;28;20362;-78
2022/12/23 04:46:17;;;;;;;98.17;31.17;;;;;;;;;;5055471;28;20347;-79
2022/12/23 04:48:43;;;;;;;79.33;29.47;;;;;;;;;;5073279;28;20287;-79
2022/12/23 04:51:09;;;;;;;85.13;29.00;;;;;;;;;;5073181;28;20678;-79
2022/12/23 04:53:36;;;;;;;80.80;28.57;;;;;;;;;;5073568;28;20294;-79
2022/12/23 04:56:03;;;;;;;77.30;27.73;;;;;;;;;;5055501;28;20294;-79
2022/12/23 04:58:29;;;;;;;99.17;29.83;;;;;;;;;;5074654;28;20377;-79
2022/12/23 05:01:05;;;;;;;73.60;26.13;;;;;;;;;;5077157;28;20283;-79
2022/12/23 05:03:31;;;;;;;76.70;26.87;;;;;;;;;;5077157;28;20353;-79
2022/12/23 05:05:57;;;;;;;65.37;27.77;;;;;;;;;;5077274;28;20361;-79
2022/12/23 05:08:24;;;;;;;75.90;29.20;;;;;;;;;;5077118;28;20366;-79
2022/12/23 05:10:50;;;;;;;64.57;27.03;;;;;;;;;;5077654;28;20354;-79
2022/12/23 05:13:16;;;;;;;60.93;25.63;;;;;;;;;;5077181;28;20688;-79
2022/12/23 05:15:49;;;;;;;68.43;25.47;;;;;;;;;;5059226;28;20424;-79
2022/12/23 05:18:15;;;;;;;70.07;26.53;;;;;;;;;;5077391;28;20311;-79
2022/12/23 05:20:41;;;;;;;69.43;25.83;;;;;;;;;;5076639;28;20286;-79
2022/12/23 05:23:08;;;;;;;67.67;25.67;;;;;;;;;;5076821;28;20310;-79
2022/12/23 05:25:35;;;;;;;68.37;25.47;;;;;;;;;;5077324;28;20274;-79
2022/12/23 05:28:01;;;;;;;73.53;26.33;;;;;;;;;;5077505;28;20317;-79
2022/12/23 05:30:27;;;;;;;78.63;27.57;;;;;;;;;;5076620;28;20363;-79
2022/12/23 05:32:53;;;;;;;72.80;26.87;;;;;;;;;;5058777;28;20705;-79
2022/12/23 05:35:20;;;;;;;69.67;26.83;;;;;;;;;;5077119;28;20275;-79
2022/12/23 05:37:46;;;;;;;64.00;26.20;;;;;;;;;;5076426;28;20331;-79
2022/12/23 05:40:12;;;;;;;75.07;26.53;;;;;;;;;;5076465;28;20347;-79
2022/12/23 05:42:38;;;;;;;65.87;26.03;;;;;;;;;;5058521;28;20318;-79
2022/12/23 05:45:04;;;;;;;72.10;26.73;;;;;;;;;;5076310;28;20322;-79
2022/12/23 05:47:30;;;;;;;74.80;27.23;;;;;;;;;;5076368;28;20279;-79
2022/12/23 05:49:57;;;;;;;69.57;26.90;;;;;;;;;;5059410;28;20321;-79
2022/12/23 05:52:23;;;;;;;74.37;26.60;;;;;;;;;;5076196;28;20359;-79
2022/12/23 05:54:49;;;;;;;79.70;26.37;;;;;;;;;;5076178;28;20279;-79
2022/12/23 05:57:15;;;;;;;73.33;27.53;;;;;;;;;;5058558;28;20631;-79
2022/12/23 05:59:41;;;;;;;70.07;25.47;;;;;;;;;;5076163;28;20326;-79
2022/12/23 06:02:07;;;;;;;71.30;26.93;;;;;;;;;;5058545;28;20356;-79
2022/12/23 06:04:33;;;;;;;68.70;26.57;;;;;;;;;;5058447;28;20694;-79
2022/12/23 06:06:59;;;;;;;73.30;25.93;;;;;;;;;;5059246;28;20362;-79
2022/12/23 06:09:26;;;;;;;75.70;27.87;;;;;;;;;;5075538;28;20283;-79
2022/12/23 06:11:52;;;;;;;80.73;26.90;;;;;;;;;;5058577;28;20318;-79
2022/12/23 06:14:18;;;;;;;61.97;25.63;;;;;;;;;;5075864;28;20335;-79
2022/12/23 06:16:44;;;;;;;131.37;29.57;;;;;;;;;;5058157;28;20313;-80
2022/12/23 06:19:10;;;;;;;87.03;26.60;;;;;;;;;;5075772;28;20358;-80
2022/12/23 06:21:36;;;;;;;76.17;25.13;;;;;;;;;;5058023;28;20640;-79
2022/12/23 06:24:02;;;;;;;85.97;25.43;;;;;;;;;;5076218;28;20278;-79
2022/12/23 06:26:28;;;;;;;61.20;22.37;;;;;;;;;;5076254;28;20311;-79
2022/12/23 06:28:54;;;;;;;66.60;23.90;;;;;;;;;;5076147;28;20716;-79
2022/12/23 06:31:21;;;;;;;127.50;26.77;;;;;;;;;;5057879;28;20369;-79
2022/12/23 06:33:47;;;;;;;100.97;26.27;;;;;;;;;;5075435;28;20299;-79
2022/12/23 06:36:13;;;;;;;88.53;24.57;;;;;;;;;;5075842;28;20329;-79
2022/12/23 06:38:39;;;;;;;67.43;24.00;;;;;;;;;;5057661;28;20642;-79
2022/12/23 06:41:06;;;;;;;90.13;25.10;;;;;;;;;;5075499;28;20270;-79
2022/12/23 06:43:32;;;;;;;97.40;26.57;;;;;;;;;;5057557;28;20787;-79
2022/12/23 06:45:58;;;;;;;125.70;27.17;;;;;;;;;;5075620;28;20375;-79
2022/12/23 06:48:24;;;;;;;58.93;24.13;;;;;;;;;;5075612;28;20361;-79
2022/12/23 06:50:51;;;;;;;82.20;26.67;;;;;;;;;;5075410;28;20835;-79
2022/12/23 06:53:17;;;;;;;155.17;28.93;;;;;;;;;;5057316;28;20298;-79
2022/12/23 06:55:43;;;;;;;75.70;25.93;;;;;;;;;;5075542;28;20405;-79
2022/12/23 06:58:09;;;;;;;71.67;24.30;;;;;;;;;;5075030;28;20358;-80
2022/12/23 07:00:36;;;;;;;76.20;26.60;;;;;;;;;;5075744;28;20687;-79
2022/12/23 07:03:02;;;;;;;121.40;30.13;;;;;;;;;;5057350;28;20787;-79
2022/12/23 07:05:28;;;;;;;80.73;27.50;;;;;;;;;;5074849;28;20279;-79
2022/12/23 07:07:54;;;;;;;88.33;27.03;;;;;;;;;;5074794;28;20283;-79
2022/12/23 07:10:20;;;;;;;112.93;29.17;;;;;;;;;;5041069;28;20298;-79
2022/12/23 07:12:46;;;;;;;66.83;26.50;;;;;;;;;;5056813;28;20302;-79
2022/12/23 07:15:12;;;;;;;64.63;25.13;;;;;;;;;;5074634;28;20315;-79
2022/12/23 07:17:38;;;;;;;54.70;23.60;;;;;;;;;;5057050;28;20382;-79
2022/12/23 07:20:05;;;;;;;73.77;25.23;;;;;;;;;;5074535;28;20301;-79
2022/12/23 07:22:31;;;;;;;57.70;24.50;;;;;;;;;;5074045;28;20270;-79
2022/12/23 07:24:57;;;;;;;54.30;23.67;;;;;;;;;;5040270;28;20289;-79
2022/12/23 07:27:23;;;;;;;79.27;25.73;;;;;;;;;;5074467;28;20279;-79
2022/12/23 07:29:50;;;;;;;62.00;23.30;;;;;;;;;;5056477;28;20294;-79
2022/12/23 07:32:16;;;;;;;71.23;24.50;;;;;;;;;;5056634;28;20287;-79
2022/12/23 07:34:42;;;;;;;58.90;23.77;;;;;;;;;;5057255;28;20290;-79
2022/12/23 07:37:08;;;;;;;59.03;24.07;;;;;;;;;;5057054;28;20289;-80
2022/12/23 07:39:35;;;;;;;63.63;24.23;;;;;;;;;;5074300;28;20627;-80
2022/12/23 07:42:01;;;;;;;62.90;23.57;;;;;;;;;;5056519;28;20291;-80
2022/12/23 07:44:27;;;;;;;61.93;25.47;;;;;;;;;;5074315;28;20286;-80
2022/12/23 07:46:53;;;;;;;53.27;21.83;;;;;;;;;;5056519;28;20763;-80
2022/12/23 07:49:19;;;;;;;48.60;21.87;;;;;;;;;;5074047;28;20290;-81
2022/12/23 07:51:46;;;;;;;52.70;21.93;;;;;;;;;;5074058;28;20314;-80
2022/12/23 07:54:13;;;;;;;50.47;21.37;;;;;;;;;;5073820;28;20317;-80
2022/12/23 07:56:39;;;;;;;58.80;23.23;;;;;;;;;;5074109;28;20824;-81
2022/12/23 07:59:05;;;;;;;46.73;20.27;;;;;;;;;;5074076;28;20310;-80
2022/12/23 08:01:31;;;;;;;51.53;21.23;;;;;;;;;;5056748;28;20634;-80
2022/12/23 08:03:57;;;;;;;51.30;20.97;;;;;;;;;;5073759;28;20310;-81
2022/12/23 08:06:23;;;;;;;45.43;19.63;;;;;;;;;;5056199;28;20331;-80
2022/12/23 08:08:50;;;;;;;54.47;21.27;;;;;;;;;;5056829;28;20758;-81
2022/12/23 08:11:16;;;;;;;49.00;20.20;;;;;;;;;;5055874;28;20349;-82
2022/12/23 08:13:44;;;;;;;50.60;20.17;;;;;;;;;;5040110;28;20303;-80
2022/12/23 08:16:11;;;;;;;44.53;18.90;;;;;;;;;;5074111;28;20290;-84
2022/12/23 08:18:38;;;;;;;58.63;21.97;;;;;;;;;;5074151;28;20310;-82
2022/12/23 08:21:05;;;;;;;52.93;20.77;;;;;;;;;;5055674;28;20366;-81
2022/12/23 08:23:32;;;;;;;54.43;21.03;;;;;;;;;;5055634;28;20710;-80
2022/12/23 08:26:03;;;;;;;55.17;19.50;;;;;;;;;;5073486;28;20357;-81
2022/12/23 08:28:30;;;;;;;43.70;18.10;;;;;;;;;;5073662;28;20286;-84
2022/12/23 08:31:02;;;;;;;50.17;19.63;;;;;;;;;;5073422;28;20279;-84
2022/12/23 08:33:28;;;;;;;39.23;18.60;;;;;;;;;;5073050;28;20299;-84
2022/12/23 08:35:54;;;;;;;45.70;19.67;;;;;;;;;;5023600;28;20299;-85
2022/12/23 08:38:21;;;;;;;54.87;21.50;;;;;;;;;;5039134;28;20329;-84
2022/12/23 08:40:47;;;;;;;46.03;19.57;;;;;;;;;;5038840;28;20290;-83
2022/12/23 08:43:13;;;;;;;36.53;18.03;;;;;;;;;;5056338;28;20291;-84
2022/12/23 08:45:39;;;;;;;44.33;20.77;;;;;;;;;;5055249;28;20376;-85
2022/12/23 08:48:06;;;;;;;45.63;19.53;;;;;;;;;;5074066;28;20628;-83
2022/12/23 08:50:39;;;;;;;43.57;19.90;;;;;;;;;;5073835;28;20335;-84
2022/12/23 08:53:05;;;;;;;41.50;19.03;;;;;;;;;;5055376;28;20299;-83
2022/12/23 08:55:36;;;;;;;41.70;18.50;;;;;;;;;;5039610;28;20283;-84
2022/12/23 08:58:02;;;;;;;52.57;19.73;;;;;;;;;;5056347;28;20714;-83
2022/12/23 09:00:28;;;;;;;41.90;18.90;;;;;;;;;;5073131;28;20283;-84
2022/12/23 09:02:55;;;;;;;55.57;21.97;;;;;;;;;;5073089;28;20275;-83
2022/12/23 09:05:21;;;;;;;60.97;22.57;;;;;;;;;;5038737;28;20604;-84
2022/12/23 09:07:47;;;;;;;41.90;19.60;;;;;;;;;;5055727;28;20294;-86
2022/12/23 09:10:13;;;;;;;38.33;18.07;;;;;;;;;;5055442;28;20813;-83
2022/12/23 09:12:39;;;;;;;39.93;17.83;;;;;;;;;;5072915;28;20330;-83
2022/12/23 09:15:05;;;;;;;51.10;20.50;;;;;;;;;;5056168;28;20319;-85
2022/12/23 09:17:32;;;;;;;43.30;22.20;;;;;;;;;;5073622;28;20318;-83
2022/12/23 09:19:58;;;;;;;48.83;25.87;;;;;;;;;;5055347;28;20687;-84
2022/12/23 09:22:24;;;;;;;45.43;24.80;;;;;;;;;;5056081;28;20326;-87
2022/12/23 09:24:50;;;;;;;59.57;25.37;;;;;;;;;;5055272;28;20290;-85
2022/12/23 09:27:16;;;;;;;51.07;20.67;;;;;;;;;;5056084;28;20279;-83
2022/12/23 09:29:42;;;;;;;42.33;19.60;;;;;;;;;;5055799;28;20763;-82
2022/12/23 09:32:09;;;;;;;48.37;22.40;;;;;;;;;;5072789;28;20287;-83
2022/12/23 09:34:35;;;;;;;37.63;17.90;;;;;;;;;;5073452;28;20279;-84
2022/12/23 09:37:02;;;;;;;44.60;19.67;;;;;;;;;;5054964;28;20703;-83
2022/12/23 09:39:28;;;;;;;44.23;19.93;;;;;;;;;;5055369;28;20315;-82
2022/12/23 09:42:00;;;;;;;49.00;21.60;;;;;;;;;;5072760;28;20287;-82
2022/12/23 09:44:32;;;;;;;47.83;21.03;;;;;;;;;;5039403;28;20291;-86
2022/12/23 09:47:04;;;;;;;42.53;19.50;;;;;;;;;;5058475;28;20309;-80
2022/12/23 09:49:30;;;;;;;43.63;19.47;;;;;;;;;;5042889;28;20322;-81
2022/12/23 09:51:59;;;;;;;41.20;17.93;;;;;;;;;;5058749;28;20286;-80
2022/12/23 09:54:29;;;;;;;45.00;19.07;;;;;;;;;;5058159;28;20299;-80
2022/12/23 09:56:58;;;;;;;48.40;20.37;;;;;;;;;;5076251;28;20279;-79
2022/12/23 09:59:24;;;;;;;46.13;19.77;;;;;;;;;;5058715;28;20369;-80
2022/12/23 10:02:03;;;;;;;44.27;19.23;;;;;;;;;;5058403;28;20291;-82
2022/12/23 10:04:29;;;;;;;41.33;17.63;;;;;;;;;;5058393;28;20295;-81
2022/12/23 10:07:07;;;;;;;53.07;19.13;;;;;;;;;;5058168;28;20813;-85
2022/12/23 10:09:36;;;;;;;43.83;18.23;;;;;;;;;;5076163;28;20335;-83
2022/12/23 10:12:06;;;;;;;43.53;18.23;;;;;;;;;;5058203;28;20286;-85
2022/12/23 10:14:34;;;;;;;42.40;17.37;;;;;;;;;;5075657;28;20298;-81
2022/12/23 10:17:04;;;;;;;46.47;18.60;;;;;;;;;;5058334;28;20286;-82
2022/12/23 10:19:40;;;;;;;46.47;18.17;;;;;;;;;;5042416;28;20297;-82
2022/12/23 10:22:11;;;;;;;43.33;18.20;;;;;;;;;;5075901;28;20672;-82
2022/12/23 10:24:42;;;;;;;44.60;18.07;;;;;;;;;;5075926;28;20275;-81
2022/12/23 10:27:24;;;;;;;43.87;17.13;;;;;;;;;;5042115;28;20416;-79
2022/12/23 10:29:50;;;;;;;42.40;17.07;;;;;;;;;;5075629;28;20354;-75
2022/12/23 10:32:17;;;;;;;47.30;19.00;;;;;;;;;;5057726;28;20291;-78
2022/12/23 10:34:56;;;;;;;38.50;16.73;;;;;;;;;;5075398;28;20290;-77
2022/12/23 10:37:25;;;;;;;44.97;17.93;;;;;;;;;;5075727;28;20759;-77
2022/12/23 10:40:10;;;;;;;42.47;16.43;;;;;;;;;;5057732;28;20353;-77
2022/12/23 10:42:36;;;;;;;44.65;16.80;;;;;;;;;;5057636;28;20290;-76
2022/12/23 10:45:15;;;;;;;37.70;15.23;;;;;;;;;;5075182;28;20144;-77
2022/12/23 10:47:48;;;;;;;34.33;15.20;;;;;;;;;;5075142;28;20290;-75
2022/12/23 10:50:33;;;;;;;39.03;16.40;;;;;;;;;;5057516;28;20365;-76
2022/12/23 10:53:01;;;;;;;39.08;16.05;;;;;;;;;;5057990;28;20639;-77
2022/12/23 10:55:31;;;;;;;43.13;16.90;;;;;;;;;;5074582;28;20459;-77
2022/12/23 10:58:03;;;;;;;33.97;15.33;;;;;;;;;;5057550;28;20419;-76
2022/12/23 11:00:29;;;;;;;38.77;16.00;;;;;;;;;;5074939;28;20282;-81
2022/12/23 11:02:55;;;;;;;38.13;16.17;;;;;;;;;;5074877;28;20380;-76
2022/12/23 11:05:24;;;;;;;34.37;14.40;;;;;;;;;;5056872;28;20291;-77
2022/12/23 11:07:50;;;;;;;38.83;16.37;;;;;;;;;;5024922;28;20298;-77
2022/12/23 11:10:21;;;;;;;44.83;17.17;;;;;;;;;;5057078;28;20287;-76
2022/12/23 11:12:48;;;;;;;39.03;16.07;;;;;;;;;;5075352;28;20405;-77
2022/12/23 11:15:34;;;;;;;39.93;17.23;;;;;;;;;;5057842;28;20283;-78
2022/12/23 11:18:00;;;;;;;;;;;;;;;;;;5075219;28;20703;-77
2022/12/23 11:20:26;;;;;;;38.47;15.97;;;;;;;;;;5073714;28;20376;-77
2022/12/23 11:22:54;;;;;;;39.53;15.60;;;;;;;;;;5074973;28;20366;-79
2022/12/23 11:25:29;;;;;;;40.33;16.30;;;;;;;;;;5056506;28;20326;-78
2022/12/23 11:28:01;;;;;;;36.65;16.75;;;;;;;;;;5074357;28;20315;-76
2022/12/23 11:30:28;;;;;;;34.87;15.87;;;;;;;;;;5074226;28;20045;-82
2022/12/23 11:32:54;;;;;;;31.93;15.63;;;;;;;;;;5074166;28;20294;-84
2022/12/23 11:35:24;;;;;;;34.93;15.17;;;;;;;;;;5074151;28;20295;-80
2022/12/23 11:37:51;;;;;;;33.63;14.70;;;;;;;;;;5056523;28;20344;-80
2022/12/23 11:40:23;;;;;;;33.30;15.73;;;;;;;;;;5056276;28;20290;-78
2022/12/23 11:42:52;;;;;;;35.33;16.47;;;;;;;;;;5055909;28;20283;-87
2022/12/23 11:45:24;;;;;;;32.67;16.33;;;;;;;;;;5056147;28;20290;-86
2022/12/23 11:47:50;;;;;;;37.33;21.40;;;;;;;;;;5073745;28;20366;-84
2022/12/23 11:50:28;;;;;;;37.40;17.47;;;;;;;;;;5040475;28;20357;-85
2022/12/23 11:53:00;;;;;;;45.00;27.80;;;;;;;;;;5056624;28;20860;-87
2022/12/23 11:55:33;;;;;;;32.00;17.67;;;;;;;;;;5039689;28;20801;-83
2022/12/23 11:58:01;;;;;;;38.27;16.67;;;;;;;;;;5056175;28;20406;-83
2022/12/23 12:00:38;;;;;;;32.50;17.00;;;;;;;;;;5039395;28;20633;-86
2022/12/23 12:03:06;;;;;;;37.40;17.17;;;;;;;;;;5039623;28;20295;-83
2022/12/23 12:05:37;;;;;;;37.53;16.37;;;;;;;;;;5055975;28;20630;-83
2022/12/23 12:08:06;;;;;;;34.00;15.93;;;;;;;;;;5055961;28;20295;-85
2022/12/23 12:10:34;;;;;;;34.20;15.63;;;;;;;;;;5073671;28;20304;-84
2022/12/23 12:13:02;;;;;;;40.70;17.33;;;;;;;;;;5055769;28;20349;-85
2022/12/23 12:15:28;;;;;;;36.00;16.30;;;;;;;;;;5055453;28;20382;-82
2022/12/23 12:17:55;;;;;;;33.40;16.23;;;;;;;;;;5055780;28;20663;-83
2022/12/23 12:20:30;;;;;;;31.10;14.60;;;;;;;;;;5056481;28;20287;-81
2022/12/23 12:23:05;;;;;;;34.70;15.65;;;;;;;;;;5073356;28;20287;-82
2022/12/23 12:25:37;;;;;;;26.58;15.60;;;;;;;;;;5074158;28;20084;-83
2022/12/23 12:28:04;;;;;;;36.63;16.73;;;;;;;;;;5074049;28;20381;-77
2022/12/23 12:30:37;;;;;;;27.97;13.97;;;;;;;;;;5056442;28;20379;-83
2022/12/23 12:33:07;;;;;;;32.30;15.23;;;;;;;;;;5073250;28;20303;-79
2022/12/23 12:35:45;;;;;;;29.10;13.93;;;;;;;;;;5038640;28;20287;-80
2022/12/23 12:38:14;;;;;;;30.43;14.90;;;;;;;;;;5073190;28;20364;-77
2022/12/23 12:40:48;;;;;;;33.33;14.20;;;;;;;;;;5073724;28;20282;-77
2022/12/23 12:43:18;;;;;;;29.20;13.17;;;;;;;;;;5073826;28;20274;-77
2022/12/23 12:45:49;;;;;;;28.53;13.70;;;;;;;;;;5051925;28;20291;-78
2022/12/23 12:48:45;;;;;;;27.40;14.67;;;;;;;;;;5052494;28;20341;-85
2022/12/23 12:51:14;;;;;;;29.20;14.00;;;;;;;;;;5000147;28;20673;-81
2022/12/23 12:53:59;;;;;;;27.20;14.37;;;;;;;;;;5053141;28;20045;-82
2022/12/23 12:56:40;;;;;;;28.70;14.55;;;;;;;;;;5052021;28;20373;-82
2022/12/23 12:59:06;;;;;;;26.50;14.13;;;;;;;;;;5053061;28;20088;-89
2022/12/23 13:01:42;;;;;;;27.17;13.00;;;;;;;;;;5052984;28;20288;-86
2022/12/23 13:04:11;;;;;;;32.67;17.43;;;;;;;;;;5053131;28;20315;-85
2022/12/23 13:06:50;;;;;;;31.93;15.53;;;;;;;;;;5053014;28;20837;-85
2022/12/23 13:09:23;;;;;;;25.13;12.50;;;;;;;;;;5052213;28;20330;-87
2022/12/23 13:11:57;;;;;;;30.13;13.03;;;;;;;;;;5052549;28;20569;-85
2022/12/23 13:14:32;;;;;;;30.40;15.30;;;;;;;;;;5052651;28;20348;-85
2022/12/23 13:17:13;;;;;;;31.10;13.87;;;;;;;;;;5052844;28;20509;-87
2022/12/23 13:19:45;;;;;;;28.23;13.67;;;;;;;;;;5053750;28;20370;-87
2022/12/23 13:22:21;;;;;;;32.23;15.30;;;;;;;;;;5056200;28;20690;-83
2022/12/23 13:24:53;;;;;;;31.23;13.70;;;;;;;;;;5057034;28;20369;-87
2022/12/23 13:27:25;;;;;;;25.73;13.37;;;;;;;;;;5058190;28;20287;-87
2022/12/23 13:29:54;;;;;;;23.40;10.93;;;;;;;;;;5056782;28;20299;-87
2022/12/23 13:32:26;;;;;;;27.30;12.70;;;;;;;;;;5055249;28;20766;-83
2022/12/23 13:35:03;;;;;;;26.43;11.93;;;;;;;;;;5055920;28;20759;-87
2022/12/23 13:37:39;;;;;;;22.63;11.73;;;;;;;;;;5057100;28;20290;-83
2022/12/23 13:40:24;;;;;;;26.67;12.70;;;;;;;;;;5057056;28;20636;-84
2022/12/23 13:42:59;;;;;;;29.47;12.53;;;;;;;;;;5057672;28;20311;-83
2022/12/23 13:45:29;;;;;;;25.17;12.23;;;;;;;;;;5064187;28;20318;-85
2022/12/23 13:48:14;;;;;;;25.97;11.77;;;;;;;;;;5059492;28;20835;-85
2022/12/23 13:50:44;;;;;;;22.23;12.00;;;;;;;;;;5059452;28;20374;-82
2022/12/23 13:53:16;;;;;;;34.07;14.03;;;;;;;;;;5058462;28;20301;-83
2022/12/23 13:55:57;;;;;;;24.97;11.70;;;;;;;;;;5076899;28;20291;-85
2022/12/23 13:58:29;;;;;;;25.73;11.77;;;;;;;;;;5059499;28;20283;-87
2022/12/23 14:00:57;;;;;;;26.10;12.23;;;;;;;;;;5076143;28;20766;-80
2022/12/23 14:03:24;;;;;;;29.80;13.00;;;;;;;;;;5058477;28;20287;-79
2022/12/23 14:05:52;;;;;;;26.47;12.93;;;;;;;;;;5076027;28;20271;-79
2022/12/23 14:08:18;;;;;;;25.90;12.57;;;;;;;;;;5059122;28;20286;-79
2022/12/23 14:10:53;;;;;;;26.50;13.47;;;;;;;;;;5076514;28;20791;-78
2022/12/23 14:13:19;;;;;;;;;;;;;;;;;;5076302;28;20309;-79
2022/12/23 14:15:49;;;;;;;25.80;12.13;;;;;;;;;;5076735;28;19990;-78
2022/12/23 14:18:33;;;;;;;25.57;11.80;;;;;;;;;;5075795;28;20295;-78
2022/12/23 14:21:29;;;;;;;26.80;11.65;;;;;;;;;;5076985;28;20279;-86
2022/12/23 14:23:58;;;;;;;26.63;12.02;;;;;;;;;;5055029;28;20060;-83
2022/12/23 14:26:29;;;;;;;25.17;12.15;;;;;;;;;;5075702;28;20041;-86
2022/12/23 14:28:56;;;;;;;28.83;12.50;;;;;;;;;;5042316;28;20056;-82
2022/12/23 14:31:29;;;;;;;24.70;11.43;;;;;;;;;;5074415;28;20337;-87
2022/12/23 14:34:02;;;;;;;22.57;12.57;;;;;;;;;;5041572;28;20302;-85
2022/12/23 14:36:28;;;;;;;27.50;12.53;;;;;;;;;;5058720;28;20341;-86
2022/12/23 14:39:12;;;;;;;21.13;11.63;;;;;;;;;;5057650;28;20283;-87
2022/12/23 14:41:49;;;;;;;21.67;10.73;;;;;;;;;;5075421;28;20285;-85
2022/12/23 14:44:38;;;;;;;24.27;11.13;;;;;;;;;;5075484;28;20361;-85